sensor_id;sensor_type;location;lat;lon;timestamp;P1;durP1;ratioP1;P2;durP2;ratioP2
5890;SDS011;2971;52.420;7.080;2022-10-31T00:03:40;58.23;;;40.93;;
5890;SDS011;2971;52.420;7.080;2022-10-31T00:06:05;57.60;;;40.77;;
5890;SDS011;2971;52.420;7.080;2022-10-31T00:08:31;62.23;;;42.17;;
5890;SDS011;2971;52.420;7.080;2022-10-31T00:10:56;58.10;;;40.90;;
5890;SDS011;2971;52.420;7.080;2022-10-31T00:13:21;60.43;;;40.73;;
5890;SDS011;2971;52.420;7.080;2022-10-31T00:15:47;60.83;;;40.93;;
5890;SDS011;2971;52.420;7.080;2022-10-31T00:18:12;65.17;;;44.07;;
5890;SDS011;2971;52.420;7.080;2022-10-31T00:20:37;69.20;;;46.47;;
5890;SDS011;2971;52.420;7.080;2022-10-31T00:23:04;67.07;;;44.63;;
5890;SDS011;2971;52.420;7.080;2022-10-31T00:25:32;69.13;;;47.23;;
5890;SDS011;2971;52.420;7.080;2022-10-31T00:27:59;67.63;;;44.17;;
5890;SDS011;2971;52.420;7.080;2022-10-31T00:30:24;76.40;;;47.43;;
5890;SDS011;2971;52.420;7.080;2022-10-31T00:32:49;65.97;;;45.27;;
5890;SDS011;2971;52.420;7.080;2022-10-31T00:35:15;68.47;;;46.40;;
5890;SDS011;2971;52.420;7.080;2022-10-31T00:37:40;67.17;;;46.77;;
5890;SDS011;2971;52.420;7.080;2022-10-31T00:40:06;67.20;;;47.13;;
5890;SDS011;2971;52.420;7.080;2022-10-31T00:42:32;74.17;;;44.40;;
5890;SDS011;2971;52.420;7.080;2022-10-31T00:44:57;65.70;;;45.27;;
5890;SDS011;2971;52.420;7.080;2022-10-31T00:47:22;70.47;;;45.73;;
5890;SDS011;2971;52.420;7.080;2022-10-31T00:49:48;70.47;;;45.23;;
5890;SDS011;2971;52.420;7.080;2022-10-31T00:52:13;64.93;;;46.60;;
5890;SDS011;2971;52.420;7.080;2022-10-31T00:54:38;68.73;;;46.20;;
5890;SDS011;2971;52.420;7.080;2022-10-31T00:57:04;69.33;;;45.77;;
5890;SDS011;2971;52.420;7.080;2022-10-31T00:59:29;64.70;;;46.10;;
5890;SDS011;2971;52.420;7.080;2022-10-31T01:01:55;65.83;;;43.03;;
5890;SDS011;2971;52.420;7.080;2022-10-31T01:04:23;68.17;;;43.83;;
5890;SDS011;2971;52.420;7.080;2022-10-31T01:06:49;58.40;;;42.07;;
5890;SDS011;2971;52.420;7.080;2022-10-31T01:09:14;56.83;;;41.63;;
5890;SDS011;2971;52.420;7.080;2022-10-31T01:11:39;59.97;;;41.17;;
5890;SDS011;2971;52.420;7.080;2022-10-31T01:14:05;60.30;;;40.77;;
5890;SDS011;2971;52.420;7.080;2022-10-31T01:16:30;58.47;;;41.53;;
5890;SDS011;2971;52.420;7.080;2022-10-31T01:18:55;57.03;;;40.17;;
5890;SDS011;2971;52.420;7.080;2022-10-31T01:21:22;56.70;;;40.53;;
5890;SDS011;2971;52.420;7.080;2022-10-31T01:23:49;54.43;;;41.37;;
5890;SDS011;2971;52.420;7.080;2022-10-31T01:26:16;62.63;;;41.33;;
5890;SDS011;2971;52.420;7.080;2022-10-31T01:28:54;56.87;;;41.47;;
5890;SDS011;2971;52.420;7.080;2022-10-31T01:31:22;58.40;;;40.07;;
5890;SDS011;2971;52.420;7.080;2022-10-31T01:33:50;55.73;;;40.33;;
5890;SDS011;2971;52.420;7.080;2022-10-31T01:36:20;52.83;;;37.73;;
5890;SDS011;2971;52.420;7.080;2022-10-31T01:39:00;54.70;;;37.57;;
5890;SDS011;2971;52.420;7.080;2022-10-31T01:41:29;48.43;;;37.53;;
5890;SDS011;2971;52.420;7.080;2022-10-31T01:49:08;52.87;;;36.80;;
5890;SDS011;2971;52.420;7.080;2022-10-31T01:51:36;54.63;;;36.97;;
5890;SDS011;2971;52.420;7.080;2022-10-31T01:54:06;51.50;;;36.57;;
5890;SDS011;2971;52.420;7.080;2022-10-31T01:56:33;50.07;;;36.93;;
5890;SDS011;2971;52.420;7.080;2022-10-31T01:59:00;56.67;;;38.63;;
5890;SDS011;2971;52.420;7.080;2022-10-31T02:01:27;58.37;;;38.57;;
5890;SDS011;2971;52.420;7.080;2022-10-31T02:03:52;52.30;;;36.90;;
5890;SDS011;2971;52.420;7.080;2022-10-31T02:06:26;55.77;;;39.60;;
5890;SDS011;2971;52.420;7.080;2022-10-31T02:08:57;53.90;;;38.60;;
5890;SDS011;2971;52.420;7.080;2022-10-31T02:11:23;58.33;;;39.90;;
5890;SDS011;2971;52.420;7.080;2022-10-31T02:13:49;53.67;;;39.20;;
5890;SDS011;2971;52.420;7.080;2022-10-31T02:16:14;57.17;;;38.77;;
5890;SDS011;2971;52.420;7.080;2022-10-31T02:18:40;55.20;;;38.97;;
5890;SDS011;2971;52.420;7.080;2022-10-31T02:26:52;61.03;;;41.83;;
5890;SDS011;2971;52.420;7.080;2022-10-31T02:32:25;61.20;;;44.87;;
5890;SDS011;2971;52.420;7.080;2022-10-31T02:34:55;56.33;;;36.80;;
5890;SDS011;2971;52.420;7.080;2022-10-31T02:40:09;74.20;;;46.23;;
5890;SDS011;2971;52.420;7.080;2022-10-31T02:42:49;70.33;;;45.43;;
5890;SDS011;2971;52.420;7.080;2022-10-31T02:45:23;74.93;;;48.00;;
5890;SDS011;2971;52.420;7.080;2022-10-31T02:47:53;70.97;;;46.33;;
5890;SDS011;2971;52.420;7.080;2022-10-31T02:52:50;64.63;;;43.13;;
5890;SDS011;2971;52.420;7.080;2022-10-31T02:58:01;63.53;;;41.20;;
5890;SDS011;2971;52.420;7.080;2022-10-31T03:00:29;64.77;;;43.30;;
5890;SDS011;2971;52.420;7.080;2022-10-31T03:08:34;67.07;;;43.47;;
5890;SDS011;2971;52.420;7.080;2022-10-31T03:11:07;62.50;;;42.37;;
5890;SDS011;2971;52.420;7.080;2022-10-31T03:16:34;59.63;;;42.20;;
5890;SDS011;2971;52.420;7.080;2022-10-31T03:19:23;78.30;;;45.23;;
5890;SDS011;2971;52.420;7.080;2022-10-31T03:22:06;72.00;;;46.40;;
5890;SDS011;2971;52.420;7.080;2022-10-31T03:24:38;61.87;;;43.13;;
5890;SDS011;2971;52.420;7.080;2022-10-31T03:27:05;61.80;;;44.17;;
5890;SDS011;2971;52.420;7.080;2022-10-31T03:29:34;74.20;;;45.87;;
5890;SDS011;2971;52.420;7.080;2022-10-31T03:32:06;45.33;;;35.30;;
5890;SDS011;2971;52.420;7.080;2022-10-31T03:34:42;48.53;;;36.77;;
5890;SDS011;2971;52.420;7.080;2022-10-31T03:37:09;57.30;;;39.93;;
5890;SDS011;2971;52.420;7.080;2022-10-31T03:39:37;52.20;;;38.70;;
5890;SDS011;2971;52.420;7.080;2022-10-31T03:42:38;49.07;;;37.07;;
5890;SDS011;2971;52.420;7.080;2022-10-31T03:44:58;52.20;;;37.60;;
5890;SDS011;2971;52.420;7.080;2022-10-31T03:47:26;55.83;;;41.80;;
5890;SDS011;2971;52.420;7.080;2022-10-31T03:49:51;60.27;;;41.80;;
5890;SDS011;2971;52.420;7.080;2022-10-31T03:55:11;49.90;;;37.63;;
5890;SDS011;2971;52.420;7.080;2022-10-31T04:00:16;55.10;;;40.53;;
5890;SDS011;2971;52.420;7.080;2022-10-31T04:02:46;51.77;;;38.43;;
5890;SDS011;2971;52.420;7.080;2022-10-31T04:05:15;49.53;;;37.00;;
5890;SDS011;2971;52.420;7.080;2022-10-31T04:07:43;49.17;;;37.23;;
5890;SDS011;2971;52.420;7.080;2022-10-31T04:10:11;52.87;;;35.07;;
5890;SDS011;2971;52.420;7.080;2022-10-31T04:12:39;46.80;;;35.10;;
5890;SDS011;2971;52.420;7.080;2022-10-31T04:15:05;45.43;;;33.87;;
5890;SDS011;2971;52.420;7.080;2022-10-31T04:17:32;43.27;;;34.13;;
5890;SDS011;2971;52.420;7.080;2022-10-31T04:20:00;49.23;;;35.27;;
5890;SDS011;2971;52.420;7.080;2022-10-31T04:22:26;46.50;;;35.13;;
5890;SDS011;2971;52.420;7.080;2022-10-31T04:24:51;46.63;;;32.77;;
5890;SDS011;2971;52.420;7.080;2022-10-31T04:27:17;36.40;;;30.07;;
5890;SDS011;2971;52.420;7.080;2022-10-31T04:29:42;41.80;;;33.63;;
5890;SDS011;2971;52.420;7.080;2022-10-31T04:32:07;46.70;;;34.13;;
5890;SDS011;2971;52.420;7.080;2022-10-31T04:34:33;38.20;;;30.60;;
5890;SDS011;2971;52.420;7.080;2022-10-31T04:36:58;38.30;;;29.97;;
5890;SDS011;2971;52.420;7.080;2022-10-31T04:39:23;47.87;;;36.13;;
5890;SDS011;2971;52.420;7.080;2022-10-31T04:41:49;52.10;;;35.87;;
5890;SDS011;2971;52.420;7.080;2022-10-31T04:44:15;46.30;;;34.93;;
5890;SDS011;2971;52.420;7.080;2022-10-31T04:46:40;43.93;;;34.20;;
5890;SDS011;2971;52.420;7.080;2022-10-31T04:49:06;47.37;;;35.20;;
5890;SDS011;2971;52.420;7.080;2022-10-31T04:51:31;46.27;;;33.93;;
5890;SDS011;2971;52.420;7.080;2022-10-31T04:53:57;40.33;;;31.40;;
5890;SDS011;2971;52.420;7.080;2022-10-31T04:56:22;36.00;;;30.73;;
5890;SDS011;2971;52.420;7.080;2022-10-31T04:58:48;38.13;;;30.70;;
5890;SDS011;2971;52.420;7.080;2022-10-31T05:01:13;39.20;;;29.97;;
5890;SDS011;2971;52.420;7.080;2022-10-31T05:03:38;39.97;;;31.43;;
5890;SDS011;2971;52.420;7.080;2022-10-31T05:06:04;44.33;;;33.27;;
5890;SDS011;2971;52.420;7.080;2022-10-31T05:08:30;39.90;;;32.67;;
5890;SDS011;2971;52.420;7.080;2022-10-31T05:10:59;42.77;;;31.33;;
5890;SDS011;2971;52.420;7.080;2022-10-31T05:13:25;35.67;;;30.03;;
5890;SDS011;2971;52.420;7.080;2022-10-31T05:15:50;36.10;;;29.20;;
5890;SDS011;2971;52.420;7.080;2022-10-31T05:18:17;41.90;;;32.33;;
5890;SDS011;2971;52.420;7.080;2022-10-31T05:20:42;37.43;;;27.37;;
5890;SDS011;2971;52.420;7.080;2022-10-31T05:23:08;41.53;;;30.20;;
5890;SDS011;2971;52.420;7.080;2022-10-31T05:25:33;39.77;;;31.27;;
5890;SDS011;2971;52.420;7.080;2022-10-31T05:27:59;36.73;;;27.93;;
5890;SDS011;2971;52.420;7.080;2022-10-31T05:30:25;37.37;;;28.83;;
5890;SDS011;2971;52.420;7.080;2022-10-31T05:32:52;35.30;;;29.90;;
5890;SDS011;2971;52.420;7.080;2022-10-31T05:35:20;35.37;;;27.17;;
5890;SDS011;2971;52.420;7.080;2022-10-31T05:37:49;39.67;;;29.63;;
5890;SDS011;2971;52.420;7.080;2022-10-31T05:40:17;52.67;;;34.20;;
5890;SDS011;2971;52.420;7.080;2022-10-31T05:42:44;42.33;;;31.67;;
5890;SDS011;2971;52.420;7.080;2022-10-31T05:45:10;47.50;;;33.43;;
5890;SDS011;2971;52.420;7.080;2022-10-31T05:47:37;48.03;;;32.57;;
5890;SDS011;2971;52.420;7.080;2022-10-31T05:50:02;37.90;;;30.20;;
5890;SDS011;2971;52.420;7.080;2022-10-31T05:52:28;35.43;;;29.90;;
5890;SDS011;2971;52.420;7.080;2022-10-31T05:54:54;37.83;;;29.00;;
5890;SDS011;2971;52.420;7.080;2022-10-31T05:57:19;44.83;;;31.70;;
5890;SDS011;2971;52.420;7.080;2022-10-31T05:59:44;43.47;;;30.87;;
5890;SDS011;2971;52.420;7.080;2022-10-31T06:02:10;41.37;;;30.37;;
5890;SDS011;2971;52.420;7.080;2022-10-31T06:04:35;39.03;;;30.93;;
5890;SDS011;2971;52.420;7.080;2022-10-31T06:07:01;43.33;;;31.73;;
5890;SDS011;2971;52.420;7.080;2022-10-31T06:09:26;43.47;;;31.27;;
5890;SDS011;2971;52.420;7.080;2022-10-31T06:11:51;42.23;;;31.47;;
5890;SDS011;2971;52.420;7.080;2022-10-31T06:14:17;46.37;;;31.57;;
5890;SDS011;2971;52.420;7.080;2022-10-31T06:16:42;39.30;;;30.30;;
5890;SDS011;2971;52.420;7.080;2022-10-31T06:19:07;43.40;;;31.27;;
5890;SDS011;2971;52.420;7.080;2022-10-31T06:21:33;48.20;;;32.00;;
5890;SDS011;2971;52.420;7.080;2022-10-31T06:23:58;39.47;;;29.60;;
5890;SDS011;2971;52.420;7.080;2022-10-31T06:26:24;64.83;;;37.27;;
5890;SDS011;2971;52.420;7.080;2022-10-31T06:28:49;40.50;;;33.27;;
5890;SDS011;2971;52.420;7.080;2022-10-31T06:31:15;44.63;;;33.07;;
5890;SDS011;2971;52.420;7.080;2022-10-31T06:33:41;39.13;;;33.03;;
5890;SDS011;2971;52.420;7.080;2022-10-31T06:36:07;39.23;;;32.33;;
5890;SDS011;2971;52.420;7.080;2022-10-31T06:38:32;36.07;;;30.17;;
5890;SDS011;2971;52.420;7.080;2022-10-31T06:41:01;34.73;;;29.60;;
5890;SDS011;2971;52.420;7.080;2022-10-31T06:43:27;36.23;;;28.57;;
5890;SDS011;2971;52.420;7.080;2022-10-31T06:45:53;35.73;;;28.80;;
5890;SDS011;2971;52.420;7.080;2022-10-31T06:48:18;31.93;;;26.87;;
5890;SDS011;2971;52.420;7.080;2022-10-31T06:50:44;30.73;;;26.27;;
5890;SDS011;2971;52.420;7.080;2022-10-31T06:53:09;32.80;;;27.87;;
5890;SDS011;2971;52.420;7.080;2022-10-31T06:55:35;32.10;;;27.33;;
5890;SDS011;2971;52.420;7.080;2022-10-31T06:58:00;29.73;;;26.53;;
5890;SDS011;2971;52.420;7.080;2022-10-31T07:00:27;33.37;;;28.30;;
5890;SDS011;2971;52.420;7.080;2022-10-31T07:05:18;33.53;;;27.97;;
5890;SDS011;2971;52.420;7.080;2022-10-31T07:07:44;31.13;;;26.67;;
5890;SDS011;2971;52.420;7.080;2022-10-31T07:10:09;30.33;;;25.97;;
5890;SDS011;2971;52.420;7.080;2022-10-31T07:12:35;33.00;;;27.90;;
5890;SDS011;2971;52.420;7.080;2022-10-31T07:15:00;32.70;;;27.93;;
5890;SDS011;2971;52.420;7.080;2022-10-31T07:17:25;32.47;;;26.73;;
5890;SDS011;2971;52.420;7.080;2022-10-31T07:19:51;31.23;;;27.37;;
5890;SDS011;2971;52.420;7.080;2022-10-31T07:22:16;31.83;;;28.23;;
5890;SDS011;2971;52.420;7.080;2022-10-31T07:24:41;34.63;;;28.07;;
5890;SDS011;2971;52.420;7.080;2022-10-31T07:27:07;34.60;;;29.77;;
5890;SDS011;2971;52.420;7.080;2022-10-31T07:29:32;41.33;;;32.53;;
5890;SDS011;2971;52.420;7.080;2022-10-31T07:31:58;39.67;;;32.30;;
5890;SDS011;2971;52.420;7.080;2022-10-31T07:34:23;34.73;;;30.10;;
5890;SDS011;2971;52.420;7.080;2022-10-31T07:36:50;32.93;;;29.03;;
5890;SDS011;2971;52.420;7.080;2022-10-31T07:39:17;37.13;;;29.73;;
5890;SDS011;2971;52.420;7.080;2022-10-31T07:41:42;36.90;;;30.23;;
5890;SDS011;2971;52.420;7.080;2022-10-31T07:44:08;38.10;;;32.27;;
5890;SDS011;2971;52.420;7.080;2022-10-31T07:46:33;44.50;;;34.47;;
5890;SDS011;2971;52.420;7.080;2022-10-31T07:48:58;42.23;;;33.33;;
5890;SDS011;2971;52.420;7.080;2022-10-31T07:51:24;46.73;;;35.57;;
5890;SDS011;2971;52.420;7.080;2022-10-31T07:53:49;43.57;;;34.33;;
5890;SDS011;2971;52.420;7.080;2022-10-31T07:56:15;41.07;;;33.13;;
5890;SDS011;2971;52.420;7.080;2022-10-31T07:58:40;38.67;;;31.50;;
5890;SDS011;2971;52.420;7.080;2022-10-31T08:01:06;43.17;;;33.43;;
5890;SDS011;2971;52.420;7.080;2022-10-31T08:03:31;40.63;;;33.60;;
5890;SDS011;2971;52.420;7.080;2022-10-31T08:05:57;40.50;;;31.03;;
5890;SDS011;2971;52.420;7.080;2022-10-31T08:08:22;42.90;;;33.27;;
5890;SDS011;2971;52.420;7.080;2022-10-31T08:10:49;47.23;;;35.03;;
5890;SDS011;2971;52.420;7.080;2022-10-31T08:13:14;43.07;;;34.20;;
5890;SDS011;2971;52.420;7.080;2022-10-31T08:15:40;45.83;;;34.60;;
5890;SDS011;2971;52.420;7.080;2022-10-31T08:18:09;45.47;;;34.60;;
5890;SDS011;2971;52.420;7.080;2022-10-31T08:20:37;52.83;;;36.90;;
5890;SDS011;2971;52.420;7.080;2022-10-31T08:23:03;49.67;;;37.63;;
5890;SDS011;2971;52.420;7.080;2022-10-31T08:25:31;51.77;;;37.20;;
5890;SDS011;2971;52.420;7.080;2022-10-31T08:27:57;45.87;;;35.17;;
5890;SDS011;2971;52.420;7.080;2022-10-31T08:30:24;46.93;;;36.67;;
5890;SDS011;2971;52.420;7.080;2022-10-31T08:33:04;49.47;;;37.30;;
5890;SDS011;2971;52.420;7.080;2022-10-31T08:35:31;50.43;;;36.90;;
5890;SDS011;2971;52.420;7.080;2022-10-31T08:37:57;50.03;;;35.93;;
5890;SDS011;2971;52.420;7.080;2022-10-31T08:40:23;47.17;;;34.93;;
5890;SDS011;2971;52.420;7.080;2022-10-31T08:45:24;44.27;;;34.07;;
5890;SDS011;2971;52.420;7.080;2022-10-31T08:47:50;42.77;;;34.47;;
5890;SDS011;2971;52.420;7.080;2022-10-31T08:50:16;40.60;;;33.20;;
5890;SDS011;2971;52.420;7.080;2022-10-31T08:52:41;41.07;;;33.60;;
5890;SDS011;2971;52.420;7.080;2022-10-31T08:55:07;46.00;;;33.23;;
5890;SDS011;2971;52.420;7.080;2022-10-31T08:57:32;40.00;;;32.17;;
5890;SDS011;2971;52.420;7.080;2022-10-31T08:59:58;41.33;;;32.97;;
5890;SDS011;2971;52.420;7.080;2022-10-31T09:02:23;39.77;;;30.73;;
5890;SDS011;2971;52.420;7.080;2022-10-31T09:04:48;38.20;;;31.57;;
5890;SDS011;2971;52.420;7.080;2022-10-31T09:07:14;40.43;;;30.43;;
5890;SDS011;2971;52.420;7.080;2022-10-31T09:09:39;36.17;;;30.63;;
5890;SDS011;2971;52.420;7.080;2022-10-31T09:12:05;37.77;;;30.17;;
5890;SDS011;2971;52.420;7.080;2022-10-31T09:14:30;36.60;;;30.53;;
5890;SDS011;2971;52.420;7.080;2022-10-31T09:16:55;34.93;;;28.40;;
5890;SDS011;2971;52.420;7.080;2022-10-31T09:19:21;34.87;;;29.50;;
5890;SDS011;2971;52.420;7.080;2022-10-31T09:21:46;34.87;;;29.73;;
5890;SDS011;2971;52.420;7.080;2022-10-31T09:24:12;36.17;;;28.93;;
5890;SDS011;2971;52.420;7.080;2022-10-31T09:26:37;36.90;;;28.70;;
5890;SDS011;2971;52.420;7.080;2022-10-31T09:29:02;32.47;;;27.23;;
5890;SDS011;2971;52.420;7.080;2022-10-31T09:31:28;32.40;;;27.03;;
5890;SDS011;2971;52.420;7.080;2022-10-31T09:33:54;31.53;;;24.37;;
5890;SDS011;2971;52.420;7.080;2022-10-31T09:36:19;29.13;;;24.67;;
5890;SDS011;2971;52.420;7.080;2022-10-31T09:38:44;27.87;;;23.43;;
5890;SDS011;2971;52.420;7.080;2022-10-31T09:46:41;24.57;;;20.13;;
5890;SDS011;2971;52.420;7.080;2022-10-31T09:54:53;28.90;;;19.93;;
5890;SDS011;2971;52.420;7.080;2022-10-31T09:57:27;25.57;;;21.17;;
5890;SDS011;2971;52.420;7.080;2022-10-31T09:59:55;23.57;;;18.20;;
5890;SDS011;2971;52.420;7.080;2022-10-31T10:02:32;23.43;;;18.70;;
5890;SDS011;2971;52.420;7.080;2022-10-31T10:05:11;22.17;;;17.50;;
5890;SDS011;2971;52.420;7.080;2022-10-31T10:07:44;22.23;;;16.93;;
5890;SDS011;2971;52.420;7.080;2022-10-31T10:10:23;23.03;;;17.17;;
5890;SDS011;2971;52.420;7.080;2022-10-31T10:23:42;18.60;;;15.80;;
5890;SDS011;2971;52.420;7.080;2022-10-31T10:26:21;20.47;;;14.30;;
5890;SDS011;2971;52.420;7.080;2022-10-31T10:28:51;19.13;;;13.73;;
5890;SDS011;2971;52.420;7.080;2022-10-31T10:31:21;18.13;;;13.47;;
5890;SDS011;2971;52.420;7.080;2022-10-31T10:34:06;18.40;;;12.53;;
5890;SDS011;2971;52.420;7.080;2022-10-31T10:36:46;17.97;;;12.10;;
5890;SDS011;2971;52.420;7.080;2022-10-31T10:39:32;15.17;;;11.10;;
5890;SDS011;2971;52.420;7.080;2022-10-31T10:42:07;13.57;;;10.07;;
5890;SDS011;2971;52.420;7.080;2022-10-31T10:44:56;13.47;;;9.97;;
5890;SDS011;2971;52.420;7.080;2022-10-31T10:47:42;16.57;;;9.73;;
5890;SDS011;2971;52.420;7.080;2022-10-31T10:50:11;12.43;;;8.93;;
5890;SDS011;2971;52.420;7.080;2022-10-31T10:57:58;11.00;;;7.77;;
5890;SDS011;2971;52.420;7.080;2022-10-31T11:00:27;10.90;;;6.90;;
5890;SDS011;2971;52.420;7.080;2022-10-31T11:02:56;10.00;;;6.67;;
5890;SDS011;2971;52.420;7.080;2022-10-31T11:05:39;10.67;;;6.37;;
5890;SDS011;2971;52.420;7.080;2022-10-31T11:08:24;8.17;;;6.07;;
5890;SDS011;2971;52.420;7.080;2022-10-31T11:13:26;7.20;;;5.60;;
5890;SDS011;2971;52.420;7.080;2022-10-31T11:15:57;7.47;;;5.50;;
5890;SDS011;2971;52.420;7.080;2022-10-31T11:18:26;6.57;;;4.90;;
5890;SDS011;2971;52.420;7.080;2022-10-31T11:20:54;8.37;;;5.10;;
5890;SDS011;2971;52.420;7.080;2022-10-31T11:23:22;7.67;;;5.27;;
5890;SDS011;2971;52.420;7.080;2022-10-31T11:25:50;6.33;;;5.03;;
5890;SDS011;2971;52.420;7.080;2022-10-31T11:28:19;7.30;;;5.27;;
5890;SDS011;2971;52.420;7.080;2022-10-31T11:30:46;9.27;;;6.03;;
5890;SDS011;2971;52.420;7.080;2022-10-31T11:33:16;9.10;;;6.23;;
5890;SDS011;2971;52.420;7.080;2022-10-31T11:35:43;9.43;;;6.00;;
5890;SDS011;2971;52.420;7.080;2022-10-31T11:38:12;7.73;;;5.53;;
5890;SDS011;2971;52.420;7.080;2022-10-31T11:40:50;9.17;;;5.30;;
5890;SDS011;2971;52.420;7.080;2022-10-31T11:43:17;6.33;;;4.93;;
5890;SDS011;2971;52.420;7.080;2022-10-31T11:45:43;8.67;;;5.40;;
5890;SDS011;2971;52.420;7.080;2022-10-31T11:48:15;8.93;;;5.83;;
5890;SDS011;2971;52.420;7.080;2022-10-31T11:50:42;8.90;;;5.90;;
5890;SDS011;2971;52.420;7.080;2022-10-31T11:53:14;7.97;;;5.43;;
5890;SDS011;2971;52.420;7.080;2022-10-31T11:55:42;8.17;;;5.67;;
5890;SDS011;2971;52.420;7.080;2022-10-31T11:58:21;8.57;;;5.57;;
5890;SDS011;2971;52.420;7.080;2022-10-31T12:00:51;7.77;;;5.87;;
5890;SDS011;2971;52.420;7.080;2022-10-31T12:05:48;9.20;;;6.37;;
5890;SDS011;2971;52.420;7.080;2022-10-31T12:08:19;11.17;;;6.67;;
5890;SDS011;2971;52.420;7.080;2022-10-31T12:10:51;8.87;;;6.83;;
5890;SDS011;2971;52.420;7.080;2022-10-31T12:13:52;14.90;;;7.67;;
5890;SDS011;2971;52.420;7.080;2022-10-31T12:27:46;11.20;;;7.83;;
5890;SDS011;2971;52.420;7.080;2022-10-31T12:51:48;15.90;;;10.23;;
5890;SDS011;2971;52.420;7.080;2022-10-31T12:59:42;13.03;;;10.10;;
5890;SDS011;2971;52.420;7.080;2022-10-31T13:02:13;17.43;;;10.43;;
5890;SDS011;2971;52.420;7.080;2022-10-31T13:04:46;21.67;;;10.70;;
5890;SDS011;2971;52.420;7.080;2022-10-31T13:07:23;20.67;;;11.80;;
5890;SDS011;2971;52.420;7.080;2022-10-31T13:10:00;18.23;;;11.43;;
5890;SDS011;2971;52.420;7.080;2022-10-31T13:12:30;17.10;;;11.60;;
5890;SDS011;2971;52.420;7.080;2022-10-31T13:14:58;23.13;;;12.63;;
5890;SDS011;2971;52.420;7.080;2022-10-31T13:17:28;17.33;;;12.07;;
5890;SDS011;2971;52.420;7.080;2022-10-31T13:20:04;19.63;;;12.80;;
5890;SDS011;2971;52.420;7.080;2022-10-31T13:22:34;19.27;;;13.77;;
5890;SDS011;2971;52.420;7.080;2022-10-31T13:30:41;22.57;;;13.87;;
5890;SDS011;2971;52.420;7.080;2022-10-31T13:43:15;23.83;;;14.97;;
5890;SDS011;2971;52.420;7.080;2022-10-31T13:45:49;28.67;;;15.73;;
5890;SDS011;2971;52.420;7.080;2022-10-31T13:50:42;25.90;;;15.97;;
5890;SDS011;2971;52.420;7.080;2022-10-31T13:53:21;27.20;;;16.00;;
5890;SDS011;2971;52.420;7.080;2022-10-31T13:56:02;27.83;;;16.50;;
5890;SDS011;2971;52.420;7.080;2022-10-31T13:58:29;26.80;;;15.87;;
5890;SDS011;2971;52.420;7.080;2022-10-31T14:01:05;26.93;;;15.57;;
5890;SDS011;2971;52.420;7.080;2022-10-31T14:03:44;23.77;;;15.40;;
5890;SDS011;2971;52.420;7.080;2022-10-31T14:06:12;24.53;;;16.43;;
5890;SDS011;2971;52.420;7.080;2022-10-31T14:08:40;28.73;;;16.30;;
5890;SDS011;2971;52.420;7.080;2022-10-31T14:11:08;27.07;;;17.13;;
5890;SDS011;2971;52.420;7.080;2022-10-31T14:13:37;24.60;;;15.83;;
5890;SDS011;2971;52.420;7.080;2022-10-31T14:16:18;26.20;;;16.07;;
5890;SDS011;2971;52.420;7.080;2022-10-31T14:18:51;23.70;;;13.83;;
5890;SDS011;2971;52.420;7.080;2022-10-31T14:23:52;22.40;;;14.57;;
5890;SDS011;2971;52.420;7.080;2022-10-31T14:28:51;24.37;;;15.20;;
5890;SDS011;2971;52.420;7.080;2022-10-31T14:31:32;23.67;;;15.77;;
5890;SDS011;2971;52.420;7.080;2022-10-31T14:39:37;25.20;;;15.50;;
5890;SDS011;2971;52.420;7.080;2022-10-31T14:47:26;25.70;;;15.60;;
5890;SDS011;2971;52.420;7.080;2022-10-31T14:52:45;27.57;;;16.23;;
5890;SDS011;2971;52.420;7.080;2022-10-31T14:55:14;27.33;;;16.43;;
5890;SDS011;2971;52.420;7.080;2022-10-31T14:57:43;27.37;;;16.27;;
5890;SDS011;2971;52.420;7.080;2022-10-31T15:00:17;27.43;;;17.13;;
5890;SDS011;2971;52.420;7.080;2022-10-31T15:02:54;25.13;;;16.10;;
5890;SDS011;2971;52.420;7.080;2022-10-31T15:05:41;26.03;;;16.40;;
5890;SDS011;2971;52.420;7.080;2022-10-31T15:08:14;27.20;;;17.43;;
5890;SDS011;2971;52.420;7.080;2022-10-31T15:10:52;28.53;;;16.60;;
5890;SDS011;2971;52.420;7.080;2022-10-31T15:13:18;25.27;;;17.73;;
5890;SDS011;2971;52.420;7.080;2022-10-31T15:15:46;31.40;;;17.40;;
5890;SDS011;2971;52.420;7.080;2022-10-31T15:18:17;31.97;;;17.53;;
5890;SDS011;2971;52.420;7.080;2022-10-31T15:20:51;28.53;;;17.60;;
5890;SDS011;2971;52.420;7.080;2022-10-31T15:23:22;29.27;;;17.93;;
5890;SDS011;2971;52.420;7.080;2022-10-31T15:25:49;30.17;;;18.37;;
5890;SDS011;2971;52.420;7.080;2022-10-31T15:28:20;25.83;;;16.53;;
5890;SDS011;2971;52.420;7.080;2022-10-31T15:30:55;31.83;;;17.83;;
5890;SDS011;2971;52.420;7.080;2022-10-31T15:33:39;29.77;;;18.40;;
5890;SDS011;2971;52.420;7.080;2022-10-31T15:36:06;24.83;;;16.10;;
5890;SDS011;2971;52.420;7.080;2022-10-31T15:38:42;28.93;;;18.77;;
5890;SDS011;2971;52.420;7.080;2022-10-31T15:41:19;31.17;;;17.87;;
5890;SDS011;2971;52.420;7.080;2022-10-31T15:43:47;30.00;;;18.20;;
5890;SDS011;2971;52.420;7.080;2022-10-31T15:46:12;30.67;;;19.67;;
5890;SDS011;2971;52.420;7.080;2022-10-31T15:48:38;31.63;;;19.63;;
5890;SDS011;2971;52.420;7.080;2022-10-31T15:51:09;28.17;;;18.67;;
5890;SDS011;2971;52.420;7.080;2022-10-31T15:53:42;29.43;;;17.80;;
5890;SDS011;2971;52.420;7.080;2022-10-31T15:56:18;32.23;;;19.30;;
5890;SDS011;2971;52.420;7.080;2022-10-31T15:58:49;31.70;;;19.67;;
5890;SDS011;2971;52.420;7.080;2022-10-31T16:03:58;30.50;;;20.43;;
5890;SDS011;2971;52.420;7.080;2022-10-31T16:06:44;28.93;;;19.67;;
5890;SDS011;2971;52.420;7.080;2022-10-31T16:09:22;29.13;;;19.03;;
5890;SDS011;2971;52.420;7.080;2022-10-31T16:11:49;30.43;;;21.23;;
5890;SDS011;2971;52.420;7.080;2022-10-31T16:14:15;30.03;;;19.10;;
5890;SDS011;2971;52.420;7.080;2022-10-31T16:16:47;25.87;;;17.43;;
5890;SDS011;2971;52.420;7.080;2022-10-31T16:22:09;27.80;;;22.60;;
5890;SDS011;2971;52.420;7.080;2022-10-31T16:24:52;27.80;;;19.77;;
5890;SDS011;2971;52.420;7.080;2022-10-31T16:27:20;28.43;;;17.87;;
5890;SDS011;2971;52.420;7.080;2022-10-31T16:29:57;33.03;;;20.53;;
5890;SDS011;2971;52.420;7.080;2022-10-31T16:32:27;28.53;;;20.77;;
5890;SDS011;2971;52.420;7.080;2022-10-31T16:34:59;30.87;;;18.43;;
5890;SDS011;2971;52.420;7.080;2022-10-31T16:37:38;29.93;;;19.40;;
5890;SDS011;2971;52.420;7.080;2022-10-31T16:40:07;30.80;;;23.73;;
5890;SDS011;2971;52.420;7.080;2022-10-31T16:42:35;31.63;;;23.10;;
5890;SDS011;2971;52.420;7.080;2022-10-31T16:45:00;37.63;;;26.33;;
5890;SDS011;2971;52.420;7.080;2022-10-31T16:47:26;30.20;;;19.27;;
5890;SDS011;2971;52.420;7.080;2022-10-31T16:49:52;29.27;;;20.40;;
5890;SDS011;2971;52.420;7.080;2022-10-31T16:52:18;29.00;;;22.43;;
5890;SDS011;2971;52.420;7.080;2022-10-31T16:54:43;31.70;;;23.17;;
5890;SDS011;2971;52.420;7.080;2022-10-31T16:57:14;32.73;;;19.10;;
5890;SDS011;2971;52.420;7.080;2022-10-31T16:59:41;28.83;;;21.63;;
5890;SDS011;2971;52.420;7.080;2022-10-31T17:02:09;31.07;;;22.13;;
5890;SDS011;2971;52.420;7.080;2022-10-31T17:04:39;28.97;;;20.90;;
5890;SDS011;2971;52.420;7.080;2022-10-31T17:07:05;30.10;;;20.70;;
5890;SDS011;2971;52.420;7.080;2022-10-31T17:09:30;30.87;;;20.73;;
5890;SDS011;2971;52.420;7.080;2022-10-31T17:11:56;27.30;;;20.63;;
5890;SDS011;2971;52.420;7.080;2022-10-31T17:14:22;33.73;;;20.40;;
5890;SDS011;2971;52.420;7.080;2022-10-31T17:16:47;30.40;;;20.50;;
5890;SDS011;2971;52.420;7.080;2022-10-31T17:19:14;31.60;;;21.77;;
5890;SDS011;2971;52.420;7.080;2022-10-31T17:21:39;25.83;;;19.10;;
5890;SDS011;2971;52.420;7.080;2022-10-31T17:24:05;30.07;;;23.03;;
5890;SDS011;2971;52.420;7.080;2022-10-31T17:26:31;33.87;;;23.07;;
5890;SDS011;2971;52.420;7.080;2022-10-31T17:28:56;28.73;;;18.57;;
5890;SDS011;2971;52.420;7.080;2022-10-31T17:31:26;29.47;;;21.30;;
5890;SDS011;2971;52.420;7.080;2022-10-31T17:33:54;29.30;;;21.40;;
5890;SDS011;2971;52.420;7.080;2022-10-31T17:36:20;27.47;;;19.90;;